Kerkük, Irak

Saat: 05:21 PM AST Tarih: 28 Temmuz 2014 (GMT +0300)
Erbeel (ORER) Elev 1378 ft | 36.15 °N, 44.00 °E | Change Station

Current weather conditions updated 21 minutes ago

Clear
Açık
104
Feels Like 104
N
5
Rüzgar Değişken Rüzgar from Kuzey

Tomorrow is forecast to be Warmer than today.

Bugün
High -- | Low -- F°
--% Chance of Precip.
Dün
High -- | Low -- F°
Precip. -- inç
5:07 AM 7:09 PM
Yeni Ay, 2% visible
Basınç 29.53 inç
Görüş Uzaklığı -9999.0 mil
Bulutlar
Çiğ noktası 39
Nem oranı 11%
Yağış 0.00 inç
Kar Kalınlığı Not available.
Not available.
Pollen Not available.
Hava Kalitesi Not available.
Flu Activity Not available.
METAR ORER 281400Z 01004KT CAVOK 40/04 Q1000 NOSIG

More Conditions Fewer Conditions

Basınç 29.53 inç
Görüş Uzaklığı -9999.0 mil
Bulutlar
Çiğ noktası 39
Nem oranı 11%
Yağış 0.00 inç
Kar Kalınlığı Not available.
Not available.
Pollen Not available.
Hava Kalitesi Not available.
Flu Activity Not available.
METAR ORER 281400Z 01004KT CAVOK 40/04 Q1000 NOSIG

More Conditions Fewer Conditions

10-Day Weather Forecast

Almanac

Gökbilim

Jul. 28, 2014 Rise Set
Gerçek Zaman 05:07 AST 19:09 AST
Günlük Tan 04:39 AST 19:38 AST
Deniz Tanı 04:04 AST 20:12 AST
Geceyarısı Yıldız Zamanı 03:27 AST 20:49 AST
Ay 06:23 AST 19:45 AST
Görünür Işığın Uzunluğu 14h 58m
Günün Uzunluğu
14h 02m
Tomorrow will be 1m 34s shorter.
Yeni Ay, 2% of the Moon is Illuminated
Bugün
Yeni Ay
Aug 3
İlk Hilãl
Aug 10
Dolunay
Aug 17
Son Hilãl
Aug 25
New

Yesterday's Extremes

Country Highs Country Lows

Community

WunderPhotos

Upload Photos

1,738,337 photos uploaded!

Nearby

Kar Kalınlığı

Not available.

Earthquake Activity

Şehir Distance Mag. Time & Date
No recent earthquake activity has been reported nearby.
Minimum magnitude displayed is 2.5.

Coastal Water Temperatures

Yer Sıcaklık
No Stations Reporting

Nearby Weather Stations

There are no personal weather stations in this area.